sensor_id;sensor_type;location;lat;lon;timestamp;P1;durP1;ratioP1;P2;durP2;ratioP2
27746;SDS011;15138;51.012;4.692;2023-07-20T00:00:13;6.20;;;2.17;;
27746;SDS011;15138;51.012;4.692;2023-07-20T00:02:42;4.18;;;2.40;;
27746;SDS011;15138;51.012;4.692;2023-07-20T00:05:10;4.72;;;2.25;;
27746;SDS011;15138;51.012;4.692;2023-07-20T00:07:40;4.60;;;1.85;;
27746;SDS011;15138;51.012;4.692;2023-07-20T00:10:09;5.22;;;2.20;;
27746;SDS011;15138;51.012;4.692;2023-07-20T00:12:37;6.88;;;2.70;;
27746;SDS011;15138;51.012;4.692;2023-07-20T00:15:06;4.28;;;2.30;;
27746;SDS011;15138;51.012;4.692;2023-07-20T00:17:34;9.40;;;2.67;;
27746;SDS011;15138;51.012;4.692;2023-07-20T00:20:04;8.00;;;2.88;;
27746;SDS011;15138;51.012;4.692;2023-07-20T00:22:32;7.38;;;2.55;;
27746;SDS011;15138;51.012;4.692;2023-07-20T00:25:02;4.05;;;2.13;;
27746;SDS011;15138;51.012;4.692;2023-07-20T00:27:31;8.18;;;2.60;;
27746;SDS011;15138;51.012;4.692;2023-07-20T00:29:59;7.45;;;2.60;;
27746;SDS011;15138;51.012;4.692;2023-07-20T00:32:28;9.80;;;2.90;;
27746;SDS011;15138;51.012;4.692;2023-07-20T00:34:56;7.28;;;2.25;;
27746;SDS011;15138;51.012;4.692;2023-07-20T00:37:24;7.80;;;2.78;;
27746;SDS011;15138;51.012;4.692;2023-07-20T00:39:53;9.30;;;2.70;;
27746;SDS011;15138;51.012;4.692;2023-07-20T00:42:23;7.35;;;2.17;;
27746;SDS011;15138;51.012;4.692;2023-07-20T00:44:51;7.05;;;2.60;;
27746;SDS011;15138;51.012;4.692;2023-07-20T00:47:20;5.22;;;2.20;;
27746;SDS011;15138;51.012;4.692;2023-07-20T00:49:48;10.10;;;3.08;;
27746;SDS011;15138;51.012;4.692;2023-07-20T00:52:17;8.68;;;2.70;;
27746;SDS011;15138;51.012;4.692;2023-07-20T00:54:47;7.80;;;2.05;;
27746;SDS011;15138;51.012;4.692;2023-07-20T00:57:15;6.35;;;2.70;;
27746;SDS011;15138;51.012;4.692;2023-07-20T00:59:45;6.57;;;2.00;;
27746;SDS011;15138;51.012;4.692;2023-07-20T01:02:13;8.57;;;3.00;;
27746;SDS011;15138;51.012;4.692;2023-07-20T01:04:42;10.68;;;2.92;;
27746;SDS011;15138;51.012;4.692;2023-07-20T01:07:11;10.50;;;3.13;;
27746;SDS011;15138;51.012;4.692;2023-07-20T01:09:42;9.85;;;2.03;;
27746;SDS011;15138;51.012;4.692;2023-07-20T01:12:12;8.20;;;2.58;;
27746;SDS011;15138;51.012;4.692;2023-07-20T01:14:41;13.02;;;2.53;;
27746;SDS011;15138;51.012;4.692;2023-07-20T01:17:11;9.20;;;2.47;;
27746;SDS011;15138;51.012;4.692;2023-07-20T01:19:40;8.27;;;2.63;;
27746;SDS011;15138;51.012;4.692;2023-07-20T01:22:09;6.10;;;2.50;;
27746;SDS011;15138;51.012;4.692;2023-07-20T01:24:49;8.88;;;2.42;;
27746;SDS011;15138;51.012;4.692;2023-07-20T01:27:25;6.78;;;2.25;;
27746;SDS011;15138;51.012;4.692;2023-07-20T01:30:06;7.47;;;2.72;;
27746;SDS011;15138;51.012;4.692;2023-07-20T01:32:38;5.80;;;2.40;;
27746;SDS011;15138;51.012;4.692;2023-07-20T01:35:07;6.90;;;3.00;;
27746;SDS011;15138;51.012;4.692;2023-07-20T01:37:37;5.03;;;2.30;;
27746;SDS011;15138;51.012;4.692;2023-07-20T01:40:06;5.22;;;2.10;;
27746;SDS011;15138;51.012;4.692;2023-07-20T01:42:35;12.32;;;2.85;;
27746;SDS011;15138;51.012;4.692;2023-07-20T01:45:04;4.32;;;2.53;;
27746;SDS011;15138;51.012;4.692;2023-07-20T01:47:32;8.88;;;2.85;;
27746;SDS011;15138;51.012;4.692;2023-07-20T01:50:02;9.80;;;3.65;;
27746;SDS011;15138;51.012;4.692;2023-07-20T01:52:31;7.47;;;2.65;;
27746;SDS011;15138;51.012;4.692;2023-07-20T01:54:59;9.95;;;2.90;;
27746;SDS011;15138;51.012;4.692;2023-07-20T01:57:27;11.75;;;3.40;;
27746;SDS011;15138;51.012;4.692;2023-07-20T01:59:56;6.55;;;3.05;;
27746;SDS011;15138;51.012;4.692;2023-07-20T02:02:26;6.97;;;3.30;;
27746;SDS011;15138;51.012;4.692;2023-07-20T02:04:55;7.40;;;2.88;;
27746;SDS011;15138;51.012;4.692;2023-07-20T02:07:25;6.78;;;2.20;;
27746;SDS011;15138;51.012;4.692;2023-07-20T02:09:53;9.05;;;3.42;;
27746;SDS011;15138;51.012;4.692;2023-07-20T02:12:22;5.78;;;3.10;;
27746;SDS011;15138;51.012;4.692;2023-07-20T02:14:50;8.07;;;3.92;;
27746;SDS011;15138;51.012;4.692;2023-07-20T02:17:19;12.02;;;3.65;;
27746;SDS011;15138;51.012;4.692;2023-07-20T02:19:50;7.93;;;2.60;;
27746;SDS011;15138;51.012;4.692;2023-07-20T02:22:18;9.48;;;3.10;;
27746;SDS011;15138;51.012;4.692;2023-07-20T02:24:48;5.93;;;2.47;;
27746;SDS011;15138;51.012;4.692;2023-07-20T02:27:16;6.00;;;3.60;;
27746;SDS011;15138;51.012;4.692;2023-07-20T02:29:45;8.93;;;2.67;;
27746;SDS011;15138;51.012;4.692;2023-07-20T02:32:13;4.70;;;2.30;;
27746;SDS011;15138;51.012;4.692;2023-07-20T02:34:42;7.10;;;2.88;;
27746;SDS011;15138;51.012;4.692;2023-07-20T02:37:10;8.95;;;3.20;;
27746;SDS011;15138;51.012;4.692;2023-07-20T02:39:39;8.85;;;2.75;;
27746;SDS011;15138;51.012;4.692;2023-07-20T02:42:09;10.02;;;3.28;;
27746;SDS011;15138;51.012;4.692;2023-07-20T02:44:37;5.22;;;2.25;;
27746;SDS011;15138;51.012;4.692;2023-07-20T02:47:06;15.88;;;4.32;;
27746;SDS011;15138;51.012;4.692;2023-07-20T02:49:34;6.93;;;3.17;;
27746;SDS011;15138;51.012;4.692;2023-07-20T02:52:03;9.57;;;4.22;;
27746;SDS011;15138;51.012;4.692;2023-07-20T02:54:31;6.68;;;3.05;;
27746;SDS011;15138;51.012;4.692;2023-07-20T02:57:00;13.10;;;4.38;;
27746;SDS011;15138;51.012;4.692;2023-07-20T02:59:30;9.82;;;3.45;;
27746;SDS011;15138;51.012;4.692;2023-07-20T03:01:58;5.82;;;2.75;;
27746;SDS011;15138;51.012;4.692;2023-07-20T03:04:26;10.52;;;4.20;;
27746;SDS011;15138;51.012;4.692;2023-07-20T03:06:55;7.97;;;3.55;;
27746;SDS011;15138;51.012;4.692;2023-07-20T03:09:23;9.70;;;3.10;;
27746;SDS011;15138;51.012;4.692;2023-07-20T03:11:52;8.40;;;3.47;;
27746;SDS011;15138;51.012;4.692;2023-07-20T03:14:21;7.97;;;3.85;;
27746;SDS011;15138;51.012;4.692;2023-07-20T03:16:51;8.95;;;3.70;;
27746;SDS011;15138;51.012;4.692;2023-07-20T03:19:19;8.50;;;3.13;;
27746;SDS011;15138;51.012;4.692;2023-07-20T03:21:48;5.93;;;2.90;;
27746;SDS011;15138;51.012;4.692;2023-07-20T03:24:16;10.88;;;4.10;;
27746;SDS011;15138;51.012;4.692;2023-07-20T03:26:45;8.70;;;3.78;;
27746;SDS011;15138;51.012;4.692;2023-07-20T03:29:13;7.75;;;2.72;;
27746;SDS011;15138;51.012;4.692;2023-07-20T03:31:42;6.78;;;3.72;;
27746;SDS011;15138;51.012;4.692;2023-07-20T03:34:12;7.97;;;3.80;;
27746;SDS011;15138;51.012;4.692;2023-07-20T03:36:41;11.85;;;4.72;;
27746;SDS011;15138;51.012;4.692;2023-07-20T03:39:10;10.25;;;3.22;;
27746;SDS011;15138;51.012;4.692;2023-07-20T03:41:38;5.90;;;2.90;;
27746;SDS011;15138;51.012;4.692;2023-07-20T03:44:07;6.28;;;3.08;;
27746;SDS011;15138;51.012;4.692;2023-07-20T03:46:35;8.27;;;3.45;;
27746;SDS011;15138;51.012;4.692;2023-07-20T03:49:04;7.95;;;3.42;;
27746;SDS011;15138;51.012;4.692;2023-07-20T03:51:36;6.72;;;3.28;;
27746;SDS011;15138;51.012;4.692;2023-07-20T03:54:04;10.13;;;4.85;;
27746;SDS011;15138;51.012;4.692;2023-07-20T03:56:34;11.50;;;4.40;;
27746;SDS011;15138;51.012;4.692;2023-07-20T03:59:02;7.95;;;4.18;;
27746;SDS011;15138;51.012;4.692;2023-07-20T04:01:31;16.38;;;5.32;;
27746;SDS011;15138;51.012;4.692;2023-07-20T04:04:04;13.15;;;6.22;;
27746;SDS011;15138;51.012;4.692;2023-07-20T04:06:32;11.05;;;5.35;;
27746;SDS011;15138;51.012;4.692;2023-07-20T04:09:02;6.60;;;3.38;;
27746;SDS011;15138;51.012;4.692;2023-07-20T04:11:32;7.13;;;3.30;;
27746;SDS011;15138;51.012;4.692;2023-07-20T04:14:00;14.05;;;6.22;;
27746;SDS011;15138;51.012;4.692;2023-07-20T04:16:29;8.63;;;3.88;;
27746;SDS011;15138;51.012;4.692;2023-07-20T04:18:57;9.88;;;4.93;;
27746;SDS011;15138;51.012;4.692;2023-07-20T04:21:26;6.60;;;3.72;;
27746;SDS011;15138;51.012;4.692;2023-07-20T04:23:55;9.65;;;4.38;;
27746;SDS011;15138;51.012;4.692;2023-07-20T04:26:25;12.50;;;5.13;;
27746;SDS011;15138;51.012;4.692;2023-07-20T04:28:53;6.90;;;4.20;;
27746;SDS011;15138;51.012;4.692;2023-07-20T04:31:22;13.20;;;6.57;;
27746;SDS011;15138;51.012;4.692;2023-07-20T04:33:50;13.38;;;5.47;;
27746;SDS011;15138;51.012;4.692;2023-07-20T04:36:19;12.43;;;6.18;;
27746;SDS011;15138;51.012;4.692;2023-07-20T04:38:48;10.93;;;4.50;;
27746;SDS011;15138;51.012;4.692;2023-07-20T04:41:16;8.13;;;3.80;;
27746;SDS011;15138;51.012;4.692;2023-07-20T04:43:47;13.70;;;6.45;;
27746;SDS011;15138;51.012;4.692;2023-07-20T04:46:15;12.20;;;5.65;;
27746;SDS011;15138;51.012;4.692;2023-07-20T04:48:45;9.63;;;5.43;;
27746;SDS011;15138;51.012;4.692;2023-07-20T04:51:14;13.35;;;6.70;;
27746;SDS011;15138;51.012;4.692;2023-07-20T04:53:43;15.63;;;7.43;;
27746;SDS011;15138;51.012;4.692;2023-07-20T04:56:12;9.85;;;4.10;;
27746;SDS011;15138;51.012;4.692;2023-07-20T04:58:40;10.63;;;5.25;;
27746;SDS011;15138;51.012;4.692;2023-07-20T05:01:10;13.90;;;5.80;;
27746;SDS011;15138;51.012;4.692;2023-07-20T05:03:39;8.73;;;5.45;;
27746;SDS011;15138;51.012;4.692;2023-07-20T05:06:07;14.27;;;6.38;;
27746;SDS011;15138;51.012;4.692;2023-07-20T05:08:36;11.88;;;5.43;;
27746;SDS011;15138;51.012;4.692;2023-07-20T05:11:05;12.27;;;4.63;;
27746;SDS011;15138;51.012;4.692;2023-07-20T05:13:34;10.15;;;6.28;;
27746;SDS011;15138;51.012;4.692;2023-07-20T05:16:02;8.57;;;4.70;;
27746;SDS011;15138;51.012;4.692;2023-07-20T05:18:32;9.15;;;6.43;;
27746;SDS011;15138;51.012;4.692;2023-07-20T05:21:01;9.25;;;4.53;;
27746;SDS011;15138;51.012;4.692;2023-07-20T05:23:29;8.82;;;4.43;;
27746;SDS011;15138;51.012;4.692;2023-07-20T05:25:58;12.43;;;6.35;;
27746;SDS011;15138;51.012;4.692;2023-07-20T05:28:27;14.52;;;6.93;;
27746;SDS011;15138;51.012;4.692;2023-07-20T05:30:55;16.38;;;5.97;;
27746;SDS011;15138;51.012;4.692;2023-07-20T05:33:26;9.20;;;5.43;;
27746;SDS011;15138;51.012;4.692;2023-07-20T05:35:56;12.40;;;6.05;;
27746;SDS011;15138;51.012;4.692;2023-07-20T05:38:24;12.90;;;6.25;;
27746;SDS011;15138;51.012;4.692;2023-07-20T05:40:58;11.98;;;7.05;;
27746;SDS011;15138;51.012;4.692;2023-07-20T05:43:27;10.70;;;5.50;;
27746;SDS011;15138;51.012;4.692;2023-07-20T05:45:56;12.32;;;7.32;;
27746;SDS011;15138;51.012;4.692;2023-07-20T05:48:24;19.00;;;9.10;;
27746;SDS011;15138;51.012;4.692;2023-07-20T05:50:53;14.35;;;6.47;;
27746;SDS011;15138;51.012;4.692;2023-07-20T05:53:23;13.95;;;8.10;;
27746;SDS011;15138;51.012;4.692;2023-07-20T05:55:52;18.02;;;8.60;;
27746;SDS011;15138;51.012;4.692;2023-07-20T05:58:21;12.75;;;6.18;;
27746;SDS011;15138;51.012;4.692;2023-07-20T06:00:49;11.77;;;7.63;;
27746;SDS011;15138;51.012;4.692;2023-07-20T06:03:18;16.33;;;7.53;;
27746;SDS011;15138;51.012;4.692;2023-07-20T06:05:48;11.13;;;5.35;;
27746;SDS011;15138;51.012;4.692;2023-07-20T06:08:16;14.88;;;5.78;;
27746;SDS011;15138;51.012;4.692;2023-07-20T06:10:50;19.50;;;9.82;;
27746;SDS011;15138;51.012;4.692;2023-07-20T06:13:19;11.27;;;5.97;;
27746;SDS011;15138;51.012;4.692;2023-07-20T06:15:47;9.90;;;5.90;;
27746;SDS011;15138;51.012;4.692;2023-07-20T06:18:15;16.08;;;7.95;;
27746;SDS011;15138;51.012;4.692;2023-07-20T06:20:48;10.35;;;6.70;;
27746;SDS011;15138;51.012;4.692;2023-07-20T06:23:17;12.55;;;6.57;;
27746;SDS011;15138;51.012;4.692;2023-07-20T06:25:45;11.20;;;6.53;;
27746;SDS011;15138;51.012;4.692;2023-07-20T06:28:15;21.77;;;10.50;;
27746;SDS011;15138;51.012;4.692;2023-07-20T06:30:44;16.38;;;10.93;;
27746;SDS011;15138;51.012;4.692;2023-07-20T06:33:13;14.85;;;6.88;;
27746;SDS011;15138;51.012;4.692;2023-07-20T06:35:41;20.02;;;11.38;;
27746;SDS011;15138;51.012;4.692;2023-07-20T06:38:10;14.63;;;9.48;;
27746;SDS011;15138;51.012;4.692;2023-07-20T06:40:41;14.70;;;8.80;;
27746;SDS011;15138;51.012;4.692;2023-07-20T06:43:10;15.10;;;9.98;;
27746;SDS011;15138;51.012;4.692;2023-07-20T06:45:42;17.45;;;10.18;;
27746;SDS011;15138;51.012;4.692;2023-07-20T06:48:11;13.85;;;9.15;;
27746;SDS011;15138;51.012;4.692;2023-07-20T06:50:39;19.30;;;10.90;;
27746;SDS011;15138;51.012;4.692;2023-07-20T06:53:07;17.15;;;9.05;;
27746;SDS011;15138;51.012;4.692;2023-07-20T06:55:35;16.15;;;11.13;;
27746;SDS011;15138;51.012;4.692;2023-07-20T06:58:08;14.95;;;9.32;;
27746;SDS011;15138;51.012;4.692;2023-07-20T07:00:36;22.40;;;10.60;;
27746;SDS011;15138;51.012;4.692;2023-07-20T07:03:06;10.88;;;7.60;;
27746;SDS011;15138;51.012;4.692;2023-07-20T07:05:35;13.13;;;8.65;;
27746;SDS011;15138;51.012;4.692;2023-07-20T07:08:05;23.80;;;10.63;;
27746;SDS011;15138;51.012;4.692;2023-07-20T07:10:35;23.15;;;11.32;;
27746;SDS011;15138;51.012;4.692;2023-07-20T07:13:03;16.40;;;10.18;;
27746;SDS011;15138;51.012;4.692;2023-07-20T07:15:32;12.98;;;7.68;;
27746;SDS011;15138;51.012;4.692;2023-07-20T07:18:00;13.35;;;7.80;;
27746;SDS011;15138;51.012;4.692;2023-07-20T07:20:31;13.35;;;9.82;;
27746;SDS011;15138;51.012;4.692;2023-07-20T07:22:59;17.75;;;10.52;;
27746;SDS011;15138;51.012;4.692;2023-07-20T07:25:28;17.35;;;10.75;;
27746;SDS011;15138;51.012;4.692;2023-07-20T07:27:57;14.10;;;10.35;;
27746;SDS011;15138;51.012;4.692;2023-07-20T07:30:26;16.30;;;8.75;;
27746;SDS011;15138;51.012;4.692;2023-07-20T07:32:55;17.55;;;10.57;;
27746;SDS011;15138;51.012;4.692;2023-07-20T07:35:24;16.77;;;9.80;;
27746;SDS011;15138;51.012;4.692;2023-07-20T07:37:53;15.70;;;10.98;;
27746;SDS011;15138;51.012;4.692;2023-07-20T07:40:39;14.95;;;10.98;;
27746;SDS011;15138;51.012;4.692;2023-07-20T07:43:08;12.32;;;7.32;;
27746;SDS011;15138;51.012;4.692;2023-07-20T07:45:36;16.75;;;8.43;;
27746;SDS011;15138;51.012;4.692;2023-07-20T07:48:05;10.73;;;7.07;;
27746;SDS011;15138;51.012;4.692;2023-07-20T07:50:34;8.55;;;6.40;;
27746;SDS011;15138;51.012;4.692;2023-07-20T07:53:04;9.27;;;6.68;;
27746;SDS011;15138;51.012;4.692;2023-07-20T07:55:32;9.52;;;6.32;;
27746;SDS011;15138;51.012;4.692;2023-07-20T07:58:00;10.82;;;7.70;;
27746;SDS011;15138;51.012;4.692;2023-07-20T08:00:29;11.27;;;7.55;;
27746;SDS011;15138;51.012;4.692;2023-07-20T08:02:57;9.68;;;5.65;;
27746;SDS011;15138;51.012;4.692;2023-07-20T08:05:27;10.93;;;7.00;;
27746;SDS011;15138;51.012;4.692;2023-07-20T08:07:55;8.48;;;5.45;;
27746;SDS011;15138;51.012;4.692;2023-07-20T08:10:25;10.27;;;5.78;;
27746;SDS011;15138;51.012;4.692;2023-07-20T08:12:53;7.45;;;5.78;;
27746;SDS011;15138;51.012;4.692;2023-07-20T08:15:22;8.20;;;4.72;;
27746;SDS011;15138;51.012;4.692;2023-07-20T08:17:51;8.57;;;4.43;;
27746;SDS011;15138;51.012;4.692;2023-07-20T08:20:20;10.85;;;5.47;;
27746;SDS011;15138;51.012;4.692;2023-07-20T08:22:54;10.88;;;5.82;;
27746;SDS011;15138;51.012;4.692;2023-07-20T08:25:22;8.75;;;5.00;;
27746;SDS011;15138;51.012;4.692;2023-07-20T08:27:52;7.65;;;4.03;;
27746;SDS011;15138;51.012;4.692;2023-07-20T08:30:21;7.78;;;3.47;;
27746;SDS011;15138;51.012;4.692;2023-07-20T08:32:50;7.85;;;3.42;;
27746;SDS011;15138;51.012;4.692;2023-07-20T08:35:18;5.05;;;3.58;;
27746;SDS011;15138;51.012;4.692;2023-07-20T08:37:48;4.20;;;2.78;;
27746;SDS011;15138;51.012;4.692;2023-07-20T08:40:16;4.35;;;2.60;;
27746;SDS011;15138;51.012;4.692;2023-07-20T08:42:44;4.88;;;2.70;;
27746;SDS011;15138;51.012;4.692;2023-07-20T08:45:15;4.47;;;2.90;;
27746;SDS011;15138;51.012;4.692;2023-07-20T08:47:44;3.22;;;2.05;;
27746;SDS011;15138;51.012;4.692;2023-07-20T08:50:14;3.65;;;2.25;;
27746;SDS011;15138;51.012;4.692;2023-07-20T08:52:43;5.53;;;2.30;;
27746;SDS011;15138;51.012;4.692;2023-07-20T08:55:11;7.32;;;2.47;;
27746;SDS011;15138;51.012;4.692;2023-07-20T08:57:41;4.18;;;3.05;;
27746;SDS011;15138;51.012;4.692;2023-07-20T09:00:15;6.18;;;2.97;;
27746;SDS011;15138;51.012;4.692;2023-07-20T09:02:47;6.10;;;3.70;;
27746;SDS011;15138;51.012;4.692;2023-07-20T09:05:18;3.70;;;2.40;;
27746;SDS011;15138;51.012;4.692;2023-07-20T09:07:46;4.03;;;2.60;;
27746;SDS011;15138;51.012;4.692;2023-07-20T09:10:14;2.25;;;1.80;;
27746;SDS011;15138;51.012;4.692;2023-07-20T09:12:43;5.75;;;2.08;;
27746;SDS011;15138;51.012;4.692;2023-07-20T09:15:12;4.93;;;1.90;;
27746;SDS011;15138;51.012;4.692;2023-07-20T09:17:43;4.18;;;2.70;;
27746;SDS011;15138;51.012;4.692;2023-07-20T09:20:14;4.30;;;2.25;;
27746;SDS011;15138;51.012;4.692;2023-07-20T09:22:46;4.38;;;2.17;;
27746;SDS011;15138;51.012;4.692;2023-07-20T09:25:16;3.78;;;2.10;;
27746;SDS011;15138;51.012;4.692;2023-07-20T09:27:48;3.50;;;2.13;;
27746;SDS011;15138;51.012;4.692;2023-07-20T09:30:18;5.05;;;2.70;;
27746;SDS011;15138;51.012;4.692;2023-07-20T09:32:48;6.47;;;2.42;;
27746;SDS011;15138;51.012;4.692;2023-07-20T09:35:20;3.88;;;2.17;;
27746;SDS011;15138;51.012;4.692;2023-07-20T09:37:54;4.63;;;1.98;;
27746;SDS011;15138;51.012;4.692;2023-07-20T09:40:28;4.88;;;2.25;;
27746;SDS011;15138;51.012;4.692;2023-07-20T09:42:59;3.70;;;1.85;;
27746;SDS011;15138;51.012;4.692;2023-07-20T09:45:33;4.78;;;2.17;;
27746;SDS011;15138;51.012;4.692;2023-07-20T09:48:07;2.72;;;1.60;;
27746;SDS011;15138;51.012;4.692;2023-07-20T09:50:39;2.88;;;1.83;;
27746;SDS011;15138;51.012;4.692;2023-07-20T09:53:09;6.28;;;1.45;;
27746;SDS011;15138;51.012;4.692;2023-07-20T09:55:40;3.60;;;1.80;;
27746;SDS011;15138;51.012;4.692;2023-07-20T09:58:09;5.85;;;2.00;;
27746;SDS011;15138;51.012;4.692;2023-07-20T10:00:38;4.10;;;1.58;;
27746;SDS011;15138;51.012;4.692;2023-07-20T10:03:14;2.08;;;1.30;;
27746;SDS011;15138;51.012;4.692;2023-07-20T10:05:47;2.05;;;1.25;;
27746;SDS011;15138;51.012;4.692;2023-07-20T10:08:19;1.65;;;1.00;;
27746;SDS011;15138;51.012;4.692;2023-07-20T10:10:54;3.55;;;1.70;;
27746;SDS011;15138;51.012;4.692;2023-07-20T10:13:26;3.38;;;1.50;;
27746;SDS011;15138;51.012;4.692;2023-07-20T10:15:57;3.67;;;1.40;;
27746;SDS011;15138;51.012;4.692;2023-07-20T10:18:32;2.83;;;1.48;;
27746;SDS011;15138;51.012;4.692;2023-07-20T10:21:08;1.95;;;1.30;;
27746;SDS011;15138;51.012;4.692;2023-07-20T10:23:40;3.85;;;1.58;;
27746;SDS011;15138;51.012;4.692;2023-07-20T10:26:09;2.22;;;1.40;;
27746;SDS011;15138;51.012;4.692;2023-07-20T10:28:38;4.45;;;1.50;;
27746;SDS011;15138;51.012;4.692;2023-07-20T10:31:07;2.58;;;1.13;;
27746;SDS011;15138;51.012;4.692;2023-07-20T10:33:37;4.03;;;1.30;;
27746;SDS011;15138;51.012;4.692;2023-07-20T10:36:06;2.35;;;1.10;;
27746;SDS011;15138;51.012;4.692;2023-07-20T10:38:40;3.00;;;1.10;;
27746;SDS011;15138;51.012;4.692;2023-07-20T10:41:15;1.83;;;1.00;;
27746;SDS011;15138;51.012;4.692;2023-07-20T10:43:46;4.63;;;1.63;;
27746;SDS011;15138;51.012;4.692;2023-07-20T10:46:15;1.85;;;1.00;;
27746;SDS011;15138;51.012;4.692;2023-07-20T10:49:00;2.72;;;1.00;;
27746;SDS011;15138;51.012;4.692;2023-07-20T10:51:29;3.85;;;1.38;;
27746;SDS011;15138;51.012;4.692;2023-07-20T10:53:59;1.73;;;1.00;;
27746;SDS011;15138;51.012;4.692;2023-07-20T10:56:32;1.75;;;1.15;;
27746;SDS011;15138;51.012;4.692;2023-07-20T10:59:00;2.83;;;1.02;;
27746;SDS011;15138;51.012;4.692;2023-07-20T11:01:29;1.48;;;0.88;;
27746;SDS011;15138;51.012;4.692;2023-07-20T11:04:00;1.17;;;0.90;;
27746;SDS011;15138;51.012;4.692;2023-07-20T11:06:30;1.45;;;0.88;;
27746;SDS011;15138;51.012;4.692;2023-07-20T11:09:04;2.15;;;0.80;;
27746;SDS011;15138;51.012;4.692;2023-07-20T11:11:35;2.00;;;1.02;;
27746;SDS011;15138;51.012;4.692;2023-07-20T11:14:04;1.65;;;0.77;;
27746;SDS011;15138;51.012;4.692;2023-07-20T11:16:36;2.60;;;0.90;;
27746;SDS011;15138;51.012;4.692;2023-07-20T11:19:12;2.05;;;1.10;;
27746;SDS011;15138;51.012;4.692;2023-07-20T11:22:02;0.98;;;0.90;;
27746;SDS011;15138;51.012;4.692;2023-07-20T11:24:34;2.45;;;0.80;;
27746;SDS011;15138;51.012;4.692;2023-07-20T11:27:03;1.50;;;0.88;;
27746;SDS011;15138;51.012;4.692;2023-07-20T11:29:31;2.70;;;0.80;;
27746;SDS011;15138;51.012;4.692;2023-07-20T11:32:00;3.17;;;0.70;;
27746;SDS011;15138;51.012;4.692;2023-07-20T11:34:32;1.83;;;0.88;;
27746;SDS011;15138;51.012;4.692;2023-07-20T11:37:01;0.80;;;0.63;;
27746;SDS011;15138;51.012;4.692;2023-07-20T11:39:33;0.90;;;0.57;;
27746;SDS011;15138;51.012;4.692;2023-07-20T11:42:02;2.92;;;0.85;;
27746;SDS011;15138;51.012;4.692;2023-07-20T11:44:30;1.98;;;0.80;;
27746;SDS011;15138;51.012;4.692;2023-07-20T11:46:59;1.92;;;0.80;;
27746;SDS011;15138;51.012;4.692;2023-07-20T11:49:34;2.08;;;1.00;;
27746;SDS011;15138;51.012;4.692;2023-07-20T11:52:04;1.80;;;0.77;;
27746;SDS011;15138;51.012;4.692;2023-07-20T11:54:34;3.08;;;0.82;;
27746;SDS011;15138;51.012;4.692;2023-07-20T11:57:03;1.20;;;0.70;;
27746;SDS011;15138;51.012;4.692;2023-07-20T11:59:33;2.22;;;0.80;;
27746;SDS011;15138;51.012;4.692;2023-07-20T12:02:01;2.75;;;0.90;;
27746;SDS011;15138;51.012;4.692;2023-07-20T12:04:32;3.03;;;1.10;;
27746;SDS011;15138;51.012;4.692;2023-07-20T12:07:00;1.90;;;0.90;;
27746;SDS011;15138;51.012;4.692;2023-07-20T12:09:29;1.63;;;0.90;;
27746;SDS011;15138;51.012;4.692;2023-07-20T12:12:16;3.10;;;0.90;;
27746;SDS011;15138;51.012;4.692;2023-07-20T12:14:46;4.50;;;0.80;;
27746;SDS011;15138;51.012;4.692;2023-07-20T12:17:15;2.28;;;0.70;;
27746;SDS011;15138;51.012;4.692;2023-07-20T12:19:45;1.00;;;0.70;;
27746;SDS011;15138;51.012;4.692;2023-07-20T12:22:13;2.33;;;1.00;;
27746;SDS011;15138;51.012;4.692;2023-07-20T12:24:42;2.85;;;0.70;;
27746;SDS011;15138;51.012;4.692;2023-07-20T12:27:12;0.88;;;0.63;;
27746;SDS011;15138;51.012;4.692;2023-07-20T12:29:44;0.82;;;0.57;;
27746;SDS011;15138;51.012;4.692;2023-07-20T12:32:12;2.40;;;0.60;;
27746;SDS011;15138;51.012;4.692;2023-07-20T12:34:41;1.95;;;0.60;;
27746;SDS011;15138;51.012;4.692;2023-07-20T12:37:10;4.15;;;0.70;;
27746;SDS011;15138;51.012;4.692;2023-07-20T12:39:38;2.17;;;0.60;;
27746;SDS011;15138;51.012;4.692;2023-07-20T12:42:07;1.77;;;0.73;;
27746;SDS011;15138;51.012;4.692;2023-07-20T12:44:35;2.20;;;0.60;;
27746;SDS011;15138;51.012;4.692;2023-07-20T12:47:04;2.08;;;0.93;;
27746;SDS011;15138;51.012;4.692;2023-07-20T12:49:32;0.60;;;0.50;;
27746;SDS011;15138;51.012;4.692;2023-07-20T12:52:01;1.10;;;0.60;;
27746;SDS011;15138;51.012;4.692;2023-07-20T12:54:31;1.70;;;0.68;;
27746;SDS011;15138;51.012;4.692;2023-07-20T12:56:59;3.40;;;0.70;;
27746;SDS011;15138;51.012;4.692;2023-07-20T12:59:30;0.82;;;0.60;;
27746;SDS011;15138;51.012;4.692;2023-07-20T13:01:59;2.55;;;0.85;;
27746;SDS011;15138;51.012;4.692;2023-07-20T13:04:27;1.55;;;0.73;;
27746;SDS011;15138;51.012;4.692;2023-07-20T13:06:56;0.73;;;0.60;;
27746;SDS011;15138;51.012;4.692;2023-07-20T13:09:25;1.95;;;0.70;;
27746;SDS011;15138;51.012;4.692;2023-07-20T13:11:54;1.08;;;0.50;;
27746;SDS011;15138;51.012;4.692;2023-07-20T13:14:23;2.83;;;0.95;;
27746;SDS011;15138;51.012;4.692;2023-07-20T13:16:51;1.17;;;0.73;;
27746;SDS011;15138;51.012;4.692;2023-07-20T13:19:19;0.95;;;0.60;;
27746;SDS011;15138;51.012;4.692;2023-07-20T13:21:48;2.40;;;0.70;;
27746;SDS011;15138;51.012;4.692;2023-07-20T13:24:16;0.90;;;0.45;;
27746;SDS011;15138;51.012;4.692;2023-07-20T13:26:44;1.20;;;0.77;;
27746;SDS011;15138;51.012;4.692;2023-07-20T13:29:14;0.60;;;0.40;;
27746;SDS011;15138;51.012;4.692;2023-07-20T13:31:43;2.50;;;0.80;;
27746;SDS011;15138;51.012;4.692;2023-07-20T13:34:14;2.08;;;0.75;;
27746;SDS011;15138;51.012;4.692;2023-07-20T13:36:45;2.47;;;0.65;;
27746;SDS011;15138;51.012;4.692;2023-07-20T13:39:14;4.20;;;0.60;;
27746;SDS011;15138;51.012;4.692;2023-07-20T13:41:44;2.88;;;0.70;;
27746;SDS011;15138;51.012;4.692;2023-07-20T13:44:15;0.90;;;0.60;;
27746;SDS011;15138;51.012;4.692;2023-07-20T13:46:48;1.08;;;0.60;;
27746;SDS011;15138;51.012;4.692;2023-07-20T13:49:16;2.83;;;0.70;;
27746;SDS011;15138;51.012;4.692;2023-07-20T13:51:49;2.08;;;1.00;;
27746;SDS011;15138;51.012;4.692;2023-07-20T13:54:20;1.10;;;0.75;;
27746;SDS011;15138;51.012;4.692;2023-07-20T13:56:51;1.45;;;0.70;;
27746;SDS011;15138;51.012;4.692;2023-07-20T13:59:20;1.98;;;0.70;;
27746;SDS011;15138;51.012;4.692;2023-07-20T14:01:51;1.67;;;0.70;;
27746;SDS011;15138;51.012;4.692;2023-07-20T14:04:39;1.63;;;0.75;;
27746;SDS011;15138;51.012;4.692;2023-07-20T14:07:08;1.00;;;0.60;;
27746;SDS011;15138;51.012;4.692;2023-07-20T14:09:37;2.17;;;0.70;;
27746;SDS011;15138;51.012;4.692;2023-07-20T14:12:25;1.77;;;0.82;;
27746;SDS011;15138;51.012;4.692;2023-07-20T14:14:56;1.15;;;0.70;;
27746;SDS011;15138;51.012;4.692;2023-07-20T14:17:24;1.48;;;0.82;;
27746;SDS011;15138;51.012;4.692;2023-07-20T14:19:53;1.33;;;0.70;;
27746;SDS011;15138;51.012;4.692;2023-07-20T14:22:21;2.95;;;0.70;;
27746;SDS011;15138;51.012;4.692;2023-07-20T14:24:49;3.00;;;0.85;;
27746;SDS011;15138;51.012;4.692;2023-07-20T14:27:17;1.38;;;0.70;;
27746;SDS011;15138;51.012;4.692;2023-07-20T14:29:45;1.00;;;0.70;;
27746;SDS011;15138;51.012;4.692;2023-07-20T14:32:15;4.18;;;0.75;;
27746;SDS011;15138;51.012;4.692;2023-07-20T14:34:43;2.05;;;0.65;;
27746;SDS011;15138;51.012;4.692;2023-07-20T14:37:12;1.45;;;0.77;;
27746;SDS011;15138;51.012;4.692;2023-07-20T14:39:41;0.80;;;0.80;;
27746;SDS011;15138;51.012;4.692;2023-07-20T14:42:09;1.35;;;0.70;;
27746;SDS011;15138;51.012;4.692;2023-07-20T14:44:37;2.28;;;0.80;;
27746;SDS011;15138;51.012;4.692;2023-07-20T14:47:05;1.15;;;0.75;;
27746;SDS011;15138;51.012;4.692;2023-07-20T14:49:42;1.38;;;0.90;;
27746;SDS011;15138;51.012;4.692;2023-07-20T14:52:10;1.25;;;1.05;;
27746;SDS011;15138;51.012;4.692;2023-07-20T14:54:42;2.08;;;0.90;;
27746;SDS011;15138;51.012;4.692;2023-07-20T14:57:10;1.88;;;1.00;;